sensor_id;sensor_type;location;lat;lon;timestamp;P1;durP1;ratioP1;P2;durP2;ratioP2
73168;SDS011;61379;59.732;30.468;2022-08-16T00:01:35;18.40;;;14.40;;
73168;SDS011;61379;59.732;30.468;2022-08-16T00:04:02;20.15;;;14.82;;
73168;SDS011;61379;59.732;30.468;2022-08-16T00:06:30;18.25;;;15.10;;
73168;SDS011;61379;59.732;30.468;2022-08-16T00:08:57;17.85;;;14.60;;
73168;SDS011;61379;59.732;30.468;2022-08-16T00:11:24;20.08;;;14.88;;
73168;SDS011;61379;59.732;30.468;2022-08-16T00:13:50;17.08;;;13.65;;
73168;SDS011;61379;59.732;30.468;2022-08-16T00:16:17;17.45;;;13.88;;
73168;SDS011;61379;59.732;30.468;2022-08-16T00:18:44;18.17;;;14.35;;
73168;SDS011;61379;59.732;30.468;2022-08-16T00:21:11;19.40;;;13.43;;
73168;SDS011;61379;59.732;30.468;2022-08-16T00:23:39;18.48;;;13.90;;
73168;SDS011;61379;59.732;30.468;2022-08-16T00:26:05;16.27;;;13.63;;
73168;SDS011;61379;59.732;30.468;2022-08-16T00:28:32;16.95;;;13.95;;
73168;SDS011;61379;59.732;30.468;2022-08-16T00:30:59;17.90;;;13.85;;
73168;SDS011;61379;59.732;30.468;2022-08-16T00:33:26;18.67;;;13.75;;
73168;SDS011;61379;59.732;30.468;2022-08-16T00:35:53;17.02;;;14.35;;
73168;SDS011;61379;59.732;30.468;2022-08-16T00:38:19;19.65;;;14.13;;
73168;SDS011;61379;59.732;30.468;2022-08-16T00:40:50;23.70;;;14.38;;
73168;SDS011;61379;59.732;30.468;2022-08-16T00:43:19;16.83;;;14.52;;
73168;SDS011;61379;59.732;30.468;2022-08-16T00:45:49;22.17;;;14.90;;
73168;SDS011;61379;59.732;30.468;2022-08-16T00:48:18;17.33;;;14.35;;
73168;SDS011;61379;59.732;30.468;2022-08-16T00:50:45;17.50;;;13.77;;
73168;SDS011;61379;59.732;30.468;2022-08-16T00:53:12;19.17;;;15.15;;
73168;SDS011;61379;59.732;30.468;2022-08-16T00:55:40;17.65;;;15.68;;
73168;SDS011;61379;59.732;30.468;2022-08-16T00:58:10;18.77;;;15.02;;
73168;SDS011;61379;59.732;30.468;2022-08-16T01:00:36;25.05;;;14.48;;
73168;SDS011;61379;59.732;30.468;2022-08-16T01:03:04;18.65;;;14.60;;
73168;SDS011;61379;59.732;30.468;2022-08-16T01:05:32;20.58;;;15.13;;
73168;SDS011;61379;59.732;30.468;2022-08-16T01:07:59;18.25;;;14.65;;
73168;SDS011;61379;59.732;30.468;2022-08-16T01:10:28;20.23;;;14.90;;
73168;SDS011;61379;59.732;30.468;2022-08-16T01:12:55;17.88;;;14.77;;
73168;SDS011;61379;59.732;30.468;2022-08-16T01:15:23;22.88;;;15.80;;
73168;SDS011;61379;59.732;30.468;2022-08-16T01:17:51;20.27;;;14.55;;
73168;SDS011;61379;59.732;30.468;2022-08-16T01:20:18;21.45;;;14.63;;
73168;SDS011;61379;59.732;30.468;2022-08-16T01:22:54;19.85;;;14.85;;
73168;SDS011;61379;59.732;30.468;2022-08-16T01:25:25;20.88;;;16.20;;
73168;SDS011;61379;59.732;30.468;2022-08-16T01:27:54;20.63;;;16.17;;
73168;SDS011;61379;59.732;30.468;2022-08-16T01:30:23;20.65;;;15.27;;
73168;SDS011;61379;59.732;30.468;2022-08-16T01:32:50;21.15;;;15.73;;
73168;SDS011;61379;59.732;30.468;2022-08-16T01:35:18;22.85;;;17.17;;
73168;SDS011;61379;59.732;30.468;2022-08-16T01:37:47;21.52;;;16.45;;
73168;SDS011;61379;59.732;30.468;2022-08-16T01:40:15;20.52;;;15.45;;
73168;SDS011;61379;59.732;30.468;2022-08-16T01:42:44;22.35;;;17.52;;
73168;SDS011;61379;59.732;30.468;2022-08-16T01:45:12;20.80;;;16.73;;
73168;SDS011;61379;59.732;30.468;2022-08-16T01:47:39;19.35;;;15.77;;
73168;SDS011;61379;59.732;30.468;2022-08-16T01:50:07;22.50;;;16.67;;
73168;SDS011;61379;59.732;30.468;2022-08-16T01:52:34;27.02;;;18.13;;
73168;SDS011;61379;59.732;30.468;2022-08-16T01:55:01;20.80;;;16.83;;
73168;SDS011;61379;59.732;30.468;2022-08-16T01:57:28;24.17;;;17.58;;
73168;SDS011;61379;59.732;30.468;2022-08-16T01:59:56;24.13;;;16.98;;
73168;SDS011;61379;59.732;30.468;2022-08-16T02:02:23;20.77;;;17.27;;
73168;SDS011;61379;59.732;30.468;2022-08-16T02:04:50;19.88;;;16.45;;
73168;SDS011;61379;59.732;30.468;2022-08-16T02:07:17;23.15;;;16.70;;
73168;SDS011;61379;59.732;30.468;2022-08-16T02:09:45;19.15;;;15.38;;
73168;SDS011;61379;59.732;30.468;2022-08-16T02:12:13;23.75;;;17.13;;
73168;SDS011;61379;59.732;30.468;2022-08-16T02:14:40;19.85;;;16.10;;
73168;SDS011;61379;59.732;30.468;2022-08-16T02:17:09;23.35;;;15.63;;
73168;SDS011;61379;59.732;30.468;2022-08-16T02:19:38;20.23;;;15.80;;
73168;SDS011;61379;59.732;30.468;2022-08-16T02:22:05;19.63;;;15.73;;
73168;SDS011;61379;59.732;30.468;2022-08-16T02:24:34;26.42;;;18.45;;
73168;SDS011;61379;59.732;30.468;2022-08-16T02:27:01;19.02;;;16.95;;
73168;SDS011;61379;59.732;30.468;2022-08-16T02:29:27;20.85;;;15.43;;
73168;SDS011;61379;59.732;30.468;2022-08-16T02:31:54;23.55;;;16.15;;
73168;SDS011;61379;59.732;30.468;2022-08-16T02:34:22;19.10;;;15.18;;
73168;SDS011;61379;59.732;30.468;2022-08-16T02:36:49;18.45;;;15.07;;
73168;SDS011;61379;59.732;30.468;2022-08-16T02:39:16;19.30;;;16.00;;
73168;SDS011;61379;59.732;30.468;2022-08-16T02:41:44;18.00;;;14.85;;
73168;SDS011;61379;59.732;30.468;2022-08-16T02:44:11;21.90;;;15.27;;
73168;SDS011;61379;59.732;30.468;2022-08-16T02:46:39;20.35;;;15.13;;
73168;SDS011;61379;59.732;30.468;2022-08-16T02:49:05;17.58;;;14.00;;
73168;SDS011;61379;59.732;30.468;2022-08-16T02:51:34;23.35;;;15.52;;
73168;SDS011;61379;59.732;30.468;2022-08-16T02:54:01;20.65;;;14.88;;
73168;SDS011;61379;59.732;30.468;2022-08-16T02:56:28;16.48;;;13.40;;
73168;SDS011;61379;59.732;30.468;2022-08-16T02:58:55;19.95;;;13.70;;
73168;SDS011;61379;59.732;30.468;2022-08-16T03:01:23;20.10;;;14.50;;
73168;SDS011;61379;59.732;30.468;2022-08-16T03:03:51;15.40;;;12.75;;
73168;SDS011;61379;59.732;30.468;2022-08-16T03:06:18;15.95;;;13.38;;
73168;SDS011;61379;59.732;30.468;2022-08-16T03:08:47;15.27;;;13.40;;
73168;SDS011;61379;59.732;30.468;2022-08-16T03:11:14;17.98;;;13.23;;
73168;SDS011;61379;59.732;30.468;2022-08-16T03:13:41;16.13;;;12.98;;
73168;SDS011;61379;59.732;30.468;2022-08-16T03:16:07;17.08;;;13.38;;
73168;SDS011;61379;59.732;30.468;2022-08-16T03:18:34;15.05;;;12.75;;
73168;SDS011;61379;59.732;30.468;2022-08-16T03:21:01;16.50;;;12.85;;
73168;SDS011;61379;59.732;30.468;2022-08-16T03:23:28;18.23;;;13.65;;
73168;SDS011;61379;59.732;30.468;2022-08-16T03:25:56;16.60;;;13.73;;
73168;SDS011;61379;59.732;30.468;2022-08-16T03:28:22;16.95;;;15.18;;
73168;SDS011;61379;59.732;30.468;2022-08-16T03:30:49;16.55;;;14.73;;
73168;SDS011;61379;59.732;30.468;2022-08-16T03:33:16;17.42;;;15.00;;
73168;SDS011;61379;59.732;30.468;2022-08-16T03:35:44;17.35;;;14.38;;
73168;SDS011;61379;59.732;30.468;2022-08-16T03:38:12;16.25;;;14.45;;
73168;SDS011;61379;59.732;30.468;2022-08-16T03:40:39;15.80;;;14.20;;
73168;SDS011;61379;59.732;30.468;2022-08-16T03:43:07;16.92;;;15.13;;
73168;SDS011;61379;59.732;30.468;2022-08-16T03:45:35;19.17;;;14.10;;
73168;SDS011;61379;59.732;30.468;2022-08-16T03:48:02;19.02;;;14.93;;
73168;SDS011;61379;59.732;30.468;2022-08-16T03:50:30;17.70;;;14.98;;
73168;SDS011;61379;59.732;30.468;2022-08-16T03:52:57;16.70;;;14.80;;
73168;SDS011;61379;59.732;30.468;2022-08-16T03:55:24;21.48;;;15.50;;
73168;SDS011;61379;59.732;30.468;2022-08-16T03:57:50;18.42;;;14.38;;
73168;SDS011;61379;59.732;30.468;2022-08-16T04:00:20;16.20;;;13.95;;
73168;SDS011;61379;59.732;30.468;2022-08-16T04:02:48;17.10;;;13.52;;
73168;SDS011;61379;59.732;30.468;2022-08-16T04:05:16;18.40;;;13.52;;
73168;SDS011;61379;59.732;30.468;2022-08-16T04:07:43;17.77;;;14.35;;
73168;SDS011;61379;59.732;30.468;2022-08-16T04:10:10;16.60;;;14.68;;
73168;SDS011;61379;59.732;30.468;2022-08-16T04:12:37;17.27;;;13.90;;
73168;SDS011;61379;59.732;30.468;2022-08-16T04:15:04;18.77;;;15.88;;
73168;SDS011;61379;59.732;30.468;2022-08-16T04:17:33;16.63;;;14.15;;
73168;SDS011;61379;59.732;30.468;2022-08-16T04:19:59;19.10;;;15.15;;
73168;SDS011;61379;59.732;30.468;2022-08-16T04:22:31;18.55;;;15.45;;
73168;SDS011;61379;59.732;30.468;2022-08-16T04:24:58;21.83;;;15.70;;
73168;SDS011;61379;59.732;30.468;2022-08-16T04:27:25;20.02;;;15.90;;
73168;SDS011;61379;59.732;30.468;2022-08-16T04:29:52;21.17;;;16.95;;
73168;SDS011;61379;59.732;30.468;2022-08-16T04:32:19;18.92;;;16.02;;
73168;SDS011;61379;59.732;30.468;2022-08-16T04:34:47;18.52;;;15.25;;
73168;SDS011;61379;59.732;30.468;2022-08-16T04:37:14;19.05;;;15.32;;
73168;SDS011;61379;59.732;30.468;2022-08-16T04:39:40;18.70;;;15.93;;
73168;SDS011;61379;59.732;30.468;2022-08-16T04:42:07;17.80;;;15.98;;
73168;SDS011;61379;59.732;30.468;2022-08-16T04:44:34;16.23;;;14.60;;
73168;SDS011;61379;59.732;30.468;2022-08-16T04:47:01;19.27;;;14.88;;
73168;SDS011;61379;59.732;30.468;2022-08-16T04:49:28;17.60;;;14.82;;
73168;SDS011;61379;59.732;30.468;2022-08-16T04:51:56;17.67;;;15.40;;
73168;SDS011;61379;59.732;30.468;2022-08-16T04:54:23;20.00;;;15.23;;
73168;SDS011;61379;59.732;30.468;2022-08-16T04:56:50;22.90;;;15.82;;
73168;SDS011;61379;59.732;30.468;2022-08-16T04:59:16;18.55;;;15.65;;
73168;SDS011;61379;59.732;30.468;2022-08-16T05:01:43;20.15;;;15.90;;
73168;SDS011;61379;59.732;30.468;2022-08-16T05:04:10;18.98;;;15.18;;
73168;SDS011;61379;59.732;30.468;2022-08-16T05:06:37;17.08;;;15.07;;
73168;SDS011;61379;59.732;30.468;2022-08-16T05:09:05;19.48;;;15.77;;
73168;SDS011;61379;59.732;30.468;2022-08-16T05:11:31;22.08;;;15.85;;
73168;SDS011;61379;59.732;30.468;2022-08-16T05:13:58;17.95;;;15.48;;
73168;SDS011;61379;59.732;30.468;2022-08-16T05:16:27;19.08;;;15.68;;
73168;SDS011;61379;59.732;30.468;2022-08-16T05:18:54;21.17;;;17.35;;
73168;SDS011;61379;59.732;30.468;2022-08-16T05:21:21;22.05;;;17.40;;
73168;SDS011;61379;59.732;30.468;2022-08-16T05:23:48;19.45;;;16.92;;
73168;SDS011;61379;59.732;30.468;2022-08-16T05:26:17;22.70;;;17.63;;
73168;SDS011;61379;59.732;30.468;2022-08-16T05:28:44;21.10;;;17.48;;
73168;SDS011;61379;59.732;30.468;2022-08-16T05:31:10;22.73;;;16.33;;
73168;SDS011;61379;59.732;30.468;2022-08-16T05:33:37;22.05;;;17.55;;
73168;SDS011;61379;59.732;30.468;2022-08-16T05:36:04;18.20;;;15.07;;
73168;SDS011;61379;59.732;30.468;2022-08-16T05:38:31;21.08;;;16.30;;
73168;SDS011;61379;59.732;30.468;2022-08-16T05:40:58;18.25;;;16.08;;
73168;SDS011;61379;59.732;30.468;2022-08-16T05:43:27;19.55;;;16.63;;
73168;SDS011;61379;59.732;30.468;2022-08-16T05:45:54;18.33;;;15.32;;
73168;SDS011;61379;59.732;30.468;2022-08-16T05:48:22;17.25;;;15.45;;
73168;SDS011;61379;59.732;30.468;2022-08-16T05:50:49;18.80;;;15.50;;
73168;SDS011;61379;59.732;30.468;2022-08-16T05:53:16;20.15;;;16.33;;
73168;SDS011;61379;59.732;30.468;2022-08-16T05:55:43;17.75;;;15.63;;
73168;SDS011;61379;59.732;30.468;2022-08-16T05:58:09;19.85;;;15.45;;
73168;SDS011;61379;59.732;30.468;2022-08-16T06:00:38;17.85;;;15.95;;
73168;SDS011;61379;59.732;30.468;2022-08-16T06:03:04;17.95;;;15.38;;
73168;SDS011;61379;59.732;30.468;2022-08-16T06:05:31;17.08;;;14.70;;
73168;SDS011;61379;59.732;30.468;2022-08-16T06:07:58;18.45;;;15.82;;
73168;SDS011;61379;59.732;30.468;2022-08-16T06:10:24;17.77;;;15.02;;
73168;SDS011;61379;59.732;30.468;2022-08-16T06:12:51;23.02;;;15.60;;
73168;SDS011;61379;59.732;30.468;2022-08-16T06:15:18;18.15;;;16.25;;
73168;SDS011;61379;59.732;30.468;2022-08-16T06:17:46;22.17;;;16.52;;
73168;SDS011;61379;59.732;30.468;2022-08-16T06:20:14;17.52;;;15.20;;
73168;SDS011;61379;59.732;30.468;2022-08-16T06:22:41;18.10;;;14.60;;
73168;SDS011;61379;59.732;30.468;2022-08-16T06:25:09;14.95;;;13.25;;
73168;SDS011;61379;59.732;30.468;2022-08-16T06:27:36;17.38;;;14.10;;
73168;SDS011;61379;59.732;30.468;2022-08-16T06:30:04;16.08;;;14.15;;
73168;SDS011;61379;59.732;30.468;2022-08-16T06:32:31;16.17;;;13.80;;
73168;SDS011;61379;59.732;30.468;2022-08-16T06:34:59;15.77;;;14.10;;
73168;SDS011;61379;59.732;30.468;2022-08-16T06:37:26;20.10;;;14.18;;
73168;SDS011;61379;59.732;30.468;2022-08-16T06:39:53;17.85;;;13.77;;
73168;SDS011;61379;59.732;30.468;2022-08-16T06:42:19;17.30;;;15.10;;
73168;SDS011;61379;59.732;30.468;2022-08-16T06:44:46;15.48;;;13.30;;
73168;SDS011;61379;59.732;30.468;2022-08-16T06:47:13;15.88;;;13.63;;
73168;SDS011;61379;59.732;30.468;2022-08-16T06:49:40;16.10;;;13.18;;
73168;SDS011;61379;59.732;30.468;2022-08-16T06:52:08;14.88;;;13.38;;
73168;SDS011;61379;59.732;30.468;2022-08-16T06:54:34;14.38;;;12.50;;
73168;SDS011;61379;59.732;30.468;2022-08-16T06:57:01;15.25;;;12.52;;
73168;SDS011;61379;59.732;30.468;2022-08-16T06:59:29;14.52;;;12.40;;
73168;SDS011;61379;59.732;30.468;2022-08-16T07:01:56;12.63;;;11.43;;
73168;SDS011;61379;59.732;30.468;2022-08-16T07:04:23;14.05;;;12.75;;
73168;SDS011;61379;59.732;30.468;2022-08-16T07:06:50;13.93;;;12.52;;
73168;SDS011;61379;59.732;30.468;2022-08-16T07:09:18;14.60;;;13.30;;
73168;SDS011;61379;59.732;30.468;2022-08-16T07:11:45;13.75;;;12.35;;
73168;SDS011;61379;59.732;30.468;2022-08-16T07:14:12;13.73;;;12.43;;
73168;SDS011;61379;59.732;30.468;2022-08-16T07:16:39;13.98;;;12.65;;
73168;SDS011;61379;59.732;30.468;2022-08-16T07:19:07;16.88;;;12.38;;
73168;SDS011;61379;59.732;30.468;2022-08-16T07:21:33;12.35;;;11.15;;
73168;SDS011;61379;59.732;30.468;2022-08-16T07:24:01;13.75;;;11.68;;
73168;SDS011;61379;59.732;30.468;2022-08-16T07:26:30;14.90;;;12.07;;
73168;SDS011;61379;59.732;30.468;2022-08-16T07:28:58;14.82;;;12.15;;
73168;SDS011;61379;59.732;30.468;2022-08-16T07:31:25;15.13;;;12.05;;
73168;SDS011;61379;59.732;30.468;2022-08-16T07:33:51;14.90;;;12.40;;
73168;SDS011;61379;59.732;30.468;2022-08-16T07:36:18;13.50;;;12.10;;
73168;SDS011;61379;59.732;30.468;2022-08-16T07:38:46;13.32;;;11.95;;
73168;SDS011;61379;59.732;30.468;2022-08-16T07:41:13;13.13;;;11.30;;
73168;SDS011;61379;59.732;30.468;2022-08-16T07:43:41;12.60;;;10.68;;
73168;SDS011;61379;59.732;30.468;2022-08-16T07:46:08;11.75;;;10.75;;
73168;SDS011;61379;59.732;30.468;2022-08-16T07:48:35;11.40;;;10.23;;
73168;SDS011;61379;59.732;30.468;2022-08-16T07:51:02;12.05;;;10.60;;
73168;SDS011;61379;59.732;30.468;2022-08-16T07:53:29;12.07;;;10.88;;
73168;SDS011;61379;59.732;30.468;2022-08-16T07:55:56;11.57;;;10.45;;
73168;SDS011;61379;59.732;30.468;2022-08-16T07:58:24;16.08;;;10.68;;
73168;SDS011;61379;59.732;30.468;2022-08-16T08:00:56;11.13;;;10.02;;
73168;SDS011;61379;59.732;30.468;2022-08-16T08:03:23;11.85;;;10.80;;
73168;SDS011;61379;59.732;30.468;2022-08-16T08:05:50;11.55;;;10.45;;
73168;SDS011;61379;59.732;30.468;2022-08-16T08:08:16;12.23;;;11.10;;
73168;SDS011;61379;59.732;30.468;2022-08-16T08:10:43;11.90;;;10.90;;
73168;SDS011;61379;59.732;30.468;2022-08-16T08:13:10;12.32;;;9.48;;
73168;SDS011;61379;59.732;30.468;2022-08-16T08:15:37;11.98;;;10.45;;
73168;SDS011;61379;59.732;30.468;2022-08-16T08:18:05;9.88;;;8.93;;
73168;SDS011;61379;59.732;30.468;2022-08-16T08:20:32;13.48;;;9.75;;
73168;SDS011;61379;59.732;30.468;2022-08-16T08:22:59;11.73;;;9.93;;
73168;SDS011;61379;59.732;30.468;2022-08-16T08:25:26;13.77;;;10.73;;
73168;SDS011;61379;59.732;30.468;2022-08-16T08:27:53;11.02;;;10.10;;
73168;SDS011;61379;59.732;30.468;2022-08-16T08:30:20;10.57;;;9.57;;
73168;SDS011;61379;59.732;30.468;2022-08-16T08:32:47;10.52;;;9.63;;
73168;SDS011;61379;59.732;30.468;2022-08-16T08:35:15;9.60;;;8.80;;
73168;SDS011;61379;59.732;30.468;2022-08-16T08:37:42;9.93;;;9.00;;
73168;SDS011;61379;59.732;30.468;2022-08-16T08:40:09;11.55;;;10.35;;
73168;SDS011;61379;59.732;30.468;2022-08-16T08:42:36;10.38;;;9.30;;
73168;SDS011;61379;59.732;30.468;2022-08-16T08:45:04;9.93;;;9.07;;
73168;SDS011;61379;59.732;30.468;2022-08-16T08:47:31;9.15;;;8.35;;
73168;SDS011;61379;59.732;30.468;2022-08-16T08:49:58;9.82;;;9.00;;
73168;SDS011;61379;59.732;30.468;2022-08-16T08:52:26;8.90;;;8.10;;
73168;SDS011;61379;59.732;30.468;2022-08-16T08:54:53;9.77;;;8.88;;
73168;SDS011;61379;59.732;30.468;2022-08-16T08:57:20;12.07;;;8.98;;
73168;SDS011;61379;59.732;30.468;2022-08-16T08:59:47;9.05;;;8.35;;
73168;SDS011;61379;59.732;30.468;2022-08-16T09:02:14;9.68;;;8.88;;
73168;SDS011;61379;59.732;30.468;2022-08-16T09:04:41;9.85;;;8.95;;
73168;SDS011;61379;59.732;30.468;2022-08-16T09:07:08;10.73;;;9.73;;
73168;SDS011;61379;59.732;30.468;2022-08-16T09:09:36;9.75;;;9.05;;
73168;SDS011;61379;59.732;30.468;2022-08-16T09:14:30;10.63;;;9.60;;
73168;SDS011;61379;59.732;30.468;2022-08-16T09:16:57;10.88;;;9.98;;
73168;SDS011;61379;59.732;30.468;2022-08-16T09:19:23;10.02;;;9.23;;
73168;SDS011;61379;59.732;30.468;2022-08-16T09:21:50;10.18;;;9.18;;
73168;SDS011;61379;59.732;30.468;2022-08-16T09:24:17;10.38;;;9.57;;
73168;SDS011;61379;59.732;30.468;2022-08-16T09:26:45;10.88;;;9.88;;
73168;SDS011;61379;59.732;30.468;2022-08-16T09:29:12;11.50;;;10.48;;
73168;SDS011;61379;59.732;30.468;2022-08-16T09:31:39;11.27;;;10.38;;
73168;SDS011;61379;59.732;30.468;2022-08-16T09:34:05;11.82;;;10.93;;
73168;SDS011;61379;59.732;30.468;2022-08-16T09:36:33;10.93;;;10.07;;
73168;SDS011;61379;59.732;30.468;2022-08-16T09:39:00;10.93;;;9.85;;
73168;SDS011;61379;59.732;30.468;2022-08-16T09:41:28;11.65;;;10.45;;
73168;SDS011;61379;59.732;30.468;2022-08-16T09:43:57;12.52;;;11.25;;
73168;SDS011;61379;59.732;30.468;2022-08-16T09:46:24;12.27;;;9.63;;
73168;SDS011;61379;59.732;30.468;2022-08-16T09:48:51;10.95;;;10.15;;
73168;SDS011;61379;59.732;30.468;2022-08-16T09:51:19;10.55;;;9.48;;
73168;SDS011;61379;59.732;30.468;2022-08-16T09:53:50;10.70;;;9.77;;
73168;SDS011;61379;59.732;30.468;2022-08-16T09:56:19;10.10;;;9.25;;
73168;SDS011;61379;59.732;30.468;2022-08-16T09:58:49;11.48;;;10.48;;
73168;SDS011;61379;59.732;30.468;2022-08-16T10:01:17;11.13;;;9.90;;
73168;SDS011;61379;59.732;30.468;2022-08-16T10:03:44;9.43;;;8.65;;
73168;SDS011;61379;59.732;30.468;2022-08-16T10:06:10;10.52;;;9.48;;
73168;SDS011;61379;59.732;30.468;2022-08-16T10:08:37;11.32;;;9.57;;
73168;SDS011;61379;59.732;30.468;2022-08-16T10:11:04;12.63;;;9.57;;
73168;SDS011;61379;59.732;30.468;2022-08-16T10:13:48;11.88;;;10.68;;
73168;SDS011;61379;59.732;30.468;2022-08-16T10:16:15;10.80;;;9.80;;
73168;SDS011;61379;59.732;30.468;2022-08-16T10:18:43;12.25;;;10.38;;
73168;SDS011;61379;59.732;30.468;2022-08-16T10:21:10;11.02;;;10.02;;
73168;SDS011;61379;59.732;30.468;2022-08-16T10:23:38;10.77;;;9.77;;
73168;SDS011;61379;59.732;30.468;2022-08-16T10:26:05;10.40;;;9.50;;
73168;SDS011;61379;59.732;30.468;2022-08-16T10:28:32;11.35;;;10.25;;
73168;SDS011;61379;59.732;30.468;2022-08-16T10:30:59;9.32;;;8.52;;
73168;SDS011;61379;59.732;30.468;2022-08-16T10:33:26;9.55;;;8.73;;
73168;SDS011;61379;59.732;30.468;2022-08-16T10:35:54;10.27;;;8.38;;
73168;SDS011;61379;59.732;30.468;2022-08-16T10:38:21;9.93;;;8.98;;
73168;SDS011;61379;59.732;30.468;2022-08-16T10:40:48;10.68;;;9.60;;
73168;SDS011;61379;59.732;30.468;2022-08-16T10:43:15;11.48;;;9.38;;
73168;SDS011;61379;59.732;30.468;2022-08-16T10:45:42;11.48;;;9.30;;
73168;SDS011;61379;59.732;30.468;2022-08-16T10:48:09;20.55;;;9.48;;
73168;SDS011;61379;59.732;30.468;2022-08-16T10:50:36;13.90;;;8.50;;
73168;SDS011;61379;59.732;30.468;2022-08-16T10:53:04;11.90;;;9.63;;
73168;SDS011;61379;59.732;30.468;2022-08-16T10:57:58;9.60;;;8.50;;
73168;SDS011;61379;59.732;30.468;2022-08-16T11:00:27;9.38;;;8.45;;
73168;SDS011;61379;59.732;30.468;2022-08-16T11:02:53;9.35;;;8.35;;
73168;SDS011;61379;59.732;30.468;2022-08-16T11:05:20;9.25;;;8.45;;
73168;SDS011;61379;59.732;30.468;2022-08-16T11:07:48;9.45;;;8.55;;
73168;SDS011;61379;59.732;30.468;2022-08-16T11:10:18;9.40;;;8.18;;
73168;SDS011;61379;59.732;30.468;2022-08-16T11:12:45;9.20;;;8.40;;
73168;SDS011;61379;59.732;30.468;2022-08-16T11:15:11;10.35;;;9.55;;
73168;SDS011;61379;59.732;30.468;2022-08-16T11:17:38;10.75;;;9.52;;
73168;SDS011;61379;59.732;30.468;2022-08-16T11:20:06;9.68;;;8.77;;
73168;SDS011;61379;59.732;30.468;2022-08-16T11:22:33;10.35;;;9.45;;
73168;SDS011;61379;59.732;30.468;2022-08-16T11:24:59;9.57;;;8.68;;
73168;SDS011;61379;59.732;30.468;2022-08-16T11:27:28;9.73;;;8.88;;
73168;SDS011;61379;59.732;30.468;2022-08-16T11:32:21;10.82;;;9.80;;
73168;SDS011;61379;59.732;30.468;2022-08-16T11:34:48;11.02;;;10.23;;
73168;SDS011;61379;59.732;30.468;2022-08-16T11:37:15;11.77;;;10.77;;
73168;SDS011;61379;59.732;30.468;2022-08-16T11:39:42;10.75;;;9.82;;
73168;SDS011;61379;59.732;30.468;2022-08-16T11:42:09;11.23;;;10.13;;
73168;SDS011;61379;59.732;30.468;2022-08-16T11:44:37;11.40;;;10.30;;
73168;SDS011;61379;59.732;30.468;2022-08-16T11:47:03;11.75;;;10.73;;
73168;SDS011;61379;59.732;30.468;2022-08-16T11:49:30;11.95;;;10.77;;
73168;SDS011;61379;59.732;30.468;2022-08-16T11:51:57;10.93;;;9.93;;
73168;SDS011;61379;59.732;30.468;2022-08-16T11:54:24;11.85;;;10.52;;
73168;SDS011;61379;59.732;30.468;2022-08-16T11:56:50;10.80;;;9.70;;
73168;SDS011;61379;59.732;30.468;2022-08-16T11:59:17;11.52;;;10.25;;
73168;SDS011;61379;59.732;30.468;2022-08-16T12:01:45;10.65;;;9.60;;
73168;SDS011;61379;59.732;30.468;2022-08-16T12:04:12;12.25;;;11.13;;
73168;SDS011;61379;59.732;30.468;2022-08-16T12:06:39;12.07;;;10.80;;
73168;SDS011;61379;59.732;30.468;2022-08-16T12:09:05;11.20;;;10.30;;
73168;SDS011;61379;59.732;30.468;2022-08-16T12:11:32;17.85;;;10.90;;
73168;SDS011;61379;59.732;30.468;2022-08-16T12:13:59;11.80;;;10.70;;
73168;SDS011;61379;59.732;30.468;2022-08-16T12:16:26;11.93;;;9.75;;
73168;SDS011;61379;59.732;30.468;2022-08-16T12:18:54;11.85;;;10.82;;
73168;SDS011;61379;59.732;30.468;2022-08-16T12:21:21;11.32;;;10.32;;
73168;SDS011;61379;59.732;30.468;2022-08-16T12:23:48;10.98;;;9.93;;
73168;SDS011;61379;59.732;30.468;2022-08-16T12:26:14;10.73;;;9.80;;
73168;SDS011;61379;59.732;30.468;2022-08-16T12:28:41;11.18;;;10.07;;
73168;SDS011;61379;59.732;30.468;2022-08-16T12:31:08;11.23;;;10.20;;
73168;SDS011;61379;59.732;30.468;2022-08-16T12:33:34;11.07;;;10.18;;
73168;SDS011;61379;59.732;30.468;2022-08-16T12:36:09;12.43;;;9.85;;
73168;SDS011;61379;59.732;30.468;2022-08-16T12:38:36;11.25;;;10.15;;
73168;SDS011;61379;59.732;30.468;2022-08-16T12:41:03;10.57;;;9.55;;
73168;SDS011;61379;59.732;30.468;2022-08-16T12:43:29;10.95;;;9.63;;
73168;SDS011;61379;59.732;30.468;2022-08-16T12:45:56;14.70;;;11.30;;
73168;SDS011;61379;59.732;30.468;2022-08-16T12:48:25;12.40;;;9.60;;
73168;SDS011;61379;59.732;30.468;2022-08-16T12:51:11;10.00;;;9.00;;
73168;SDS011;61379;59.732;30.468;2022-08-16T12:53:38;11.25;;;9.60;;
73168;SDS011;61379;59.732;30.468;2022-08-16T12:56:05;10.93;;;9.93;;
73168;SDS011;61379;59.732;30.468;2022-08-16T12:58:32;10.52;;;9.50;;
73168;SDS011;61379;59.732;30.468;2022-08-16T13:01:00;12.40;;;10.70;;
73168;SDS011;61379;59.732;30.468;2022-08-16T13:03:26;10.88;;;9.77;;
73168;SDS011;61379;59.732;30.468;2022-08-16T13:05:53;11.32;;;10.25;;
73168;SDS011;61379;59.732;30.468;2022-08-16T13:08:22;10.57;;;9.57;;
73168;SDS011;61379;59.732;30.468;2022-08-16T13:10:49;11.02;;;9.63;;
73168;SDS011;61379;59.732;30.468;2022-08-16T13:13:17;11.52;;;9.70;;
73168;SDS011;61379;59.732;30.468;2022-08-16T13:15:49;10.65;;;9.30;;
73168;SDS011;61379;59.732;30.468;2022-08-16T13:18:16;11.32;;;10.32;;
73168;SDS011;61379;59.732;30.468;2022-08-16T13:20:43;12.13;;;10.70;;
73168;SDS011;61379;59.732;30.468;2022-08-16T13:23:10;11.65;;;10.45;;
73168;SDS011;61379;59.732;30.468;2022-08-16T13:25:39;10.77;;;9.68;;
73168;SDS011;61379;59.732;30.468;2022-08-16T13:28:06;11.50;;;10.07;;
73168;SDS011;61379;59.732;30.468;2022-08-16T13:30:33;11.32;;;9.98;;
73168;SDS011;61379;59.732;30.468;2022-08-16T13:33:01;9.73;;;8.90;;
73168;SDS011;61379;59.732;30.468;2022-08-16T13:35:28;10.98;;;9.98;;
73168;SDS011;61379;59.732;30.468;2022-08-16T13:37:55;10.95;;;10.05;;
73168;SDS011;61379;59.732;30.468;2022-08-16T13:40:22;10.15;;;9.18;;
73168;SDS011;61379;59.732;30.468;2022-08-16T13:42:52;10.50;;;9.48;;
73168;SDS011;61379;59.732;30.468;2022-08-16T13:45:19;11.60;;;10.38;;
73168;SDS011;61379;59.732;30.468;2022-08-16T13:47:46;10.82;;;9.82;;
73168;SDS011;61379;59.732;30.468;2022-08-16T13:50:13;10.32;;;9.43;;
73168;SDS011;61379;59.732;30.468;2022-08-16T13:52:40;10.75;;;9.85;;
73168;SDS011;61379;59.732;30.468;2022-08-16T13:55:07;11.25;;;10.15;;
73168;SDS011;61379;59.732;30.468;2022-08-16T13:57:34;11.07;;;10.07;;
73168;SDS011;61379;59.732;30.468;2022-08-16T14:00:02;11.27;;;10.02;;
73168;SDS011;61379;59.732;30.468;2022-08-16T14:02:30;12.15;;;10.88;;
73168;SDS011;61379;59.732;30.468;2022-08-16T14:04:56;10.80;;;9.77;;
73168;SDS011;61379;59.732;30.468;2022-08-16T14:07:23;11.32;;;10.18;;
73168;SDS011;61379;59.732;30.468;2022-08-16T14:09:50;12.18;;;10.48;;
73168;SDS011;61379;59.732;30.468;2022-08-16T14:12:18;11.55;;;10.55;;
73168;SDS011;61379;59.732;30.468;2022-08-16T14:14:46;10.73;;;9.85;;
73168;SDS011;61379;59.732;30.468;2022-08-16T14:17:14;11.15;;;10.18;;
73168;SDS011;61379;59.732;30.468;2022-08-16T14:19:41;11.55;;;10.50;;
73168;SDS011;61379;59.732;30.468;2022-08-16T14:22:07;10.63;;;9.50;;